メインページ
METAR-TAF:

METAR-TAF

空港 :

Roscommon County - Blodgett Memorial Airport

Houghton Lake, ミシガン州, アメリカ合衆国

緯度: 44-21-04N, 経度: 084-40-27W, 海抜: 350m

現時点の気象観測

当レポートは29分前の16:53(UTC)に作成
北西の風 7kt、最大15ktの突風を伴う
気温 26°C
湿度 45%
気圧 1016 hPa
視程: 16.1km
晴天

METAR: KHTL 211653Z AUTO 32007G15KT 10SM CLR 26/13 A2999 RMK AO2 SLP149 T02610128

時間: 13:22 (17:22 UTC)


TAF: 見つかりません

4,000以上の空港の気象観測と天気予報(METAR報とTAF報)

利用可能な観測所は地図上に黄色い丸と赤い丸で示す。

丸の上にカーソルを重ねると観測所名を参照できる。

次にクリックすると気象観測と天気予報を参照できる。

マップの切り替え:黒色「×」印の緑ボタンをクリックして拡大、「-」印の緑ボタンをクリックして縮小、緑色の三角印をクリックして隣りの地図に切り替え


METAR-TAF: